createdAt,value
2022-12-14T00:03:59.068Z,-5.80
2022-12-14T00:09:04.646Z,-5.80
2022-12-14T00:14:07.659Z,-5.90
2022-12-14T00:19:11.639Z,-5.90
2022-12-14T00:24:16.710Z,-6.00
2022-12-14T00:29:19.800Z,-5.90
2022-12-14T00:34:22.171Z,-6.00
2022-12-14T00:39:24.579Z,-6.10
2022-12-14T00:44:26.938Z,-6.00
2022-12-14T00:49:29.313Z,-6.10
2022-12-14T00:54:31.708Z,-6.10
2022-12-14T00:59:34.112Z,-6.20
2022-12-14T01:04:36.602Z,-6.10
2022-12-14T01:09:39.101Z,-6.20
2022-12-14T01:14:41.773Z,-6.20
2022-12-14T01:19:44.205Z,-6.40
2022-12-14T01:24:51.502Z,-6.40
2022-12-14T01:29:54.136Z,-6.40
2022-12-14T01:34:56.564Z,-6.40
2022-12-14T01:39:58.928Z,-6.60
2022-12-14T01:45:01.905Z,-6.50
2022-12-14T01:50:27.954Z,-6.60
2022-12-14T01:55:39.760Z,-6.70
2022-12-14T02:00:43.842Z,-6.50
2022-12-14T02:06:03.731Z,-6.60
2022-12-14T02:11:06.295Z,-6.60
2022-12-14T02:16:11.183Z,-6.50
2022-12-14T02:21:19.069Z,-6.50
2022-12-14T02:26:40.237Z,-6.70
2022-12-14T02:31:46.443Z,-6.70
2022-12-14T02:37:18.405Z,-6.80
2022-12-14T02:42:52.155Z,-6.70
2022-12-14T02:48:23.308Z,-6.70
2022-12-14T02:53:34.191Z,-6.50
2022-12-14T02:58:44.160Z,-7.00
2022-12-14T03:03:46.553Z,-7.40
2022-12-14T03:08:49.064Z,-7.00
2022-12-14T03:14:01.387Z,-7.10
2022-12-14T03:19:27.253Z,-7.00
2022-12-14T03:24:37.097Z,-7.00
2022-12-14T03:29:46.020Z,-7.10
2022-12-14T03:35:01.332Z,-7.00
2022-12-14T03:40:07.991Z,-6.90
2022-12-14T03:45:23.599Z,-7.20
2022-12-14T03:50:41.559Z,-7.10
2022-12-14T03:55:43.895Z,-7.10
2022-12-14T04:01:22.991Z,-7.10
2022-12-14T04:06:45.016Z,-7.10
2022-12-14T04:12:12.616Z,-7.10
2022-12-14T04:17:40.316Z,-7.20
2022-12-14T04:22:48.776Z,-7.20
2022-12-14T04:28:00.732Z,-7.30
2022-12-14T04:33:27.625Z,-7.30
2022-12-14T04:38:36.283Z,-7.20
2022-12-14T04:43:49.004Z,-7.30
2022-12-14T04:49:15.350Z,-7.30
2022-12-14T04:54:37.749Z,-7.30
2022-12-14T04:59:40.410Z,-7.40
2022-12-14T05:05:16.269Z,-7.40
2022-12-14T05:10:21.864Z,-7.40
2022-12-14T05:15:30.140Z,-7.50
2022-12-14T05:20:32.576Z,-7.50
2022-12-14T05:25:35.088Z,-7.60
2022-12-14T05:30:37.505Z,-7.50
2022-12-14T05:35:39.927Z,-7.60
2022-12-14T05:40:42.307Z,-7.60
2022-12-14T05:45:44.677Z,-7.60
2022-12-14T05:50:47.065Z,-7.70
2022-12-14T05:55:51.313Z,-7.70
2022-12-14T06:00:53.706Z,-7.60
2022-12-14T06:06:02.637Z,-7.70
2022-12-14T06:11:16.551Z,-7.70
2022-12-14T06:16:24.562Z,-7.70
2022-12-14T06:21:33.392Z,-7.70
2022-12-14T06:26:37.007Z,-7.80
2022-12-14T06:31:39.462Z,-7.80
2022-12-14T06:36:42.950Z,-7.80
2022-12-14T06:41:50.785Z,-7.80
2022-12-14T06:46:53.171Z,-7.80
2022-12-14T06:51:55.792Z,-7.80
2022-12-14T06:56:58.224Z,-7.80
2022-12-14T07:02:00.744Z,-7.80
2022-12-14T07:07:03.219Z,-7.90
2022-12-14T07:12:05.789Z,-7.90
2022-12-14T07:17:08.143Z,-7.90
2022-12-14T07:22:10.474Z,-7.90
2022-12-14T07:27:13.040Z,-7.80
2022-12-14T07:32:15.419Z,-7.70
2022-12-14T07:37:17.964Z,-7.50
2022-12-14T07:42:20.350Z,-7.40
2022-12-14T07:47:22.850Z,-7.30
2022-12-14T07:52:25.278Z,-7.20
2022-12-14T07:57:27.624Z,-7.10
2022-12-14T08:02:30.133Z,-7.00
2022-12-14T08:07:35.153Z,-6.80
2022-12-14T08:12:37.815Z,-6.80
2022-12-14T08:17:40.289Z,-6.60
2022-12-14T08:22:42.735Z,-6.50
2022-12-14T08:27:46.313Z,-6.30
2022-12-14T08:32:48.851Z,-6.30
2022-12-14T08:37:52.796Z,-6.20
2022-12-14T08:42:55.236Z,-6.00
2022-12-14T08:47:58.570Z,-5.90
2022-12-14T08:53:01.082Z,-5.70
2022-12-14T08:58:03.641Z,-5.60
2022-12-14T09:03:06.814Z,-5.60
2022-12-14T09:08:09.376Z,-5.40
2022-12-14T09:13:11.837Z,-5.40
2022-12-14T09:18:14.269Z,-5.20
2022-12-14T09:23:16.657Z,-5.20
2022-12-14T09:28:19.057Z,-5.10
2022-12-14T09:33:21.471Z,-5.00
2022-12-14T09:38:23.900Z,-4.90
2022-12-14T09:43:37.945Z,-4.80
2022-12-14T09:48:43.125Z,-4.80
2022-12-14T09:53:48.192Z,-4.60
2022-12-14T09:58:57.202Z,-4.50
2022-12-14T10:04:08.725Z,-4.30
2022-12-14T10:09:28.266Z,-4.20
2022-12-14T10:14:58.419Z,-4.10
2022-12-14T10:20:24.339Z,-3.90
2022-12-14T10:25:29.543Z,-3.80
2022-12-14T10:30:32.917Z,-3.70
2022-12-14T10:35:52.484Z,-3.70
2022-12-14T10:41:04.326Z,-3.50
2022-12-14T10:46:44.151Z,-3.60
2022-12-14T10:51:56.545Z,-3.50
2022-12-14T10:56:59.065Z,-3.40
2022-12-14T11:02:18.591Z,-3.40
2022-12-14T11:07:37.073Z,-3.30
2022-12-14T11:12:39.532Z,-3.20
2022-12-14T11:17:44.220Z,-3.20
2022-12-14T11:22:48.998Z,-3.10
2022-12-14T11:27:52.244Z,-3.20
2022-12-14T11:32:55.343Z,-3.10
2022-12-14T11:38:01.528Z,-3.30
2022-12-14T11:43:04.926Z,-3.30
2022-12-14T11:48:16.552Z,-3.20
2022-12-14T11:53:21.010Z,-3.20
2022-12-14T11:58:32.221Z,-3.20
2022-12-14T12:03:40.853Z,-3.30
2022-12-14T12:08:44.780Z,-3.20
2022-12-14T12:13:52.632Z,-3.20
2022-12-14T12:19:17.717Z,-3.10
2022-12-14T12:25:08.583Z,-3.00
2022-12-14T12:30:30.300Z,-3.00
2022-12-14T12:35:51.080Z,-3.00
2022-12-14T12:41:06.334Z,-2.90
2022-12-14T12:46:18.402Z,-2.90
2022-12-14T12:51:35.078Z,-2.90
2022-12-14T12:56:48.132Z,-2.90
2022-12-14T13:01:57.174Z,-2.90
2022-12-14T13:07:22.458Z,-2.90
2022-12-14T13:12:41.044Z,-2.90
2022-12-14T13:17:50.838Z,-3.00
2022-12-14T13:22:54.042Z,-3.00
2022-12-14T13:27:56.669Z,-3.00
2022-12-14T13:33:07.871Z,-3.10
2022-12-14T13:38:32.668Z,-3.10
2022-12-14T13:44:03.893Z,-3.10
2022-12-14T13:49:16.894Z,-3.20
2022-12-14T13:54:40.194Z,-3.20
2022-12-14T13:59:45.504Z,-3.20
2022-12-14T14:04:47.856Z,-3.20
2022-12-14T14:09:58.462Z,-3.30
2022-12-14T14:15:47.330Z,-3.30
2022-12-14T14:21:14.157Z,-3.40
2022-12-14T14:26:22.536Z,-3.50
2022-12-14T14:32:06.375Z,-3.50
2022-12-14T14:37:16.390Z,-3.60
2022-12-14T14:42:22.667Z,-3.70
2022-12-14T14:47:27.896Z,-3.80
2022-12-14T14:52:39.448Z,-3.80
2022-12-14T14:57:57.373Z,-3.90
2022-12-14T15:03:00.626Z,-3.90
2022-12-14T15:08:04.182Z,-4.00
2022-12-14T15:13:14.918Z,-4.00
2022-12-14T15:18:24.798Z,-4.00
2022-12-14T15:23:39.681Z,-4.00
2022-12-14T15:28:42.102Z,-4.10
2022-12-14T15:33:48.090Z,-4.10
2022-12-14T15:38:52.950Z,-4.10
2022-12-14T15:43:59.591Z,-4.20
2022-12-14T15:49:05.844Z,-4.20
2022-12-14T15:54:16.079Z,-4.20
2022-12-14T15:59:27.220Z,-4.30
2022-12-14T16:04:32.263Z,-4.30
2022-12-14T16:09:37.984Z,-4.30
2022-12-14T16:14:50.887Z,-4.40
2022-12-14T16:20:00.955Z,-4.40
2022-12-14T16:25:07.503Z,-4.40
2022-12-14T16:30:31.207Z,-4.50
2022-12-14T16:35:37.115Z,-4.50
2022-12-14T16:40:55.375Z,-4.50
2022-12-14T16:46:03.864Z,-4.50
2022-12-14T16:51:18.661Z,-4.50
2022-12-14T16:56:30.085Z,-4.40
2022-12-14T17:01:44.256Z,-4.40
2022-12-14T17:06:56.174Z,-4.40
2022-12-14T17:12:01.975Z,-4.40
2022-12-14T17:17:04.638Z,-4.40
2022-12-14T17:22:19.694Z,-4.40
2022-12-14T17:27:22.638Z,-4.40
2022-12-14T17:32:30.200Z,-4.40
2022-12-14T17:37:36.557Z,-4.40
2022-12-14T17:42:40.514Z,-4.50
2022-12-14T17:47:42.916Z,-4.50
2022-12-14T17:52:45.901Z,-4.40
2022-12-14T17:57:49.310Z,-4.50
2022-12-14T18:02:51.960Z,-4.50
2022-12-14T18:07:54.479Z,-4.50
2022-12-14T18:12:57.583Z,-4.50
2022-12-14T18:18:00.097Z,-4.60
2022-12-14T18:23:02.539Z,-4.60
2022-12-14T18:28:06.981Z,-4.60
2022-12-14T18:33:17.741Z,-4.60
2022-12-14T18:38:20.614Z,-4.60
2022-12-14T18:43:28.180Z,-4.60
2022-12-14T18:48:31.090Z,-4.60
2022-12-14T18:53:34.440Z,-4.70
2022-12-14T18:58:37.452Z,-4.70
2022-12-14T19:03:39.899Z,-4.70
2022-12-14T19:08:42.786Z,-4.70
2022-12-14T19:13:46.754Z,-4.70
2022-12-14T19:18:49.295Z,-4.80
2022-12-14T19:23:51.776Z,-4.80
2022-12-14T19:28:54.149Z,-4.80
2022-12-14T19:33:56.780Z,-4.90
2022-12-14T19:38:59.182Z,-4.90
2022-12-14T19:44:01.664Z,-5.00
2022-12-14T19:49:04.147Z,-5.00
2022-12-14T19:54:08.660Z,-5.00
2022-12-14T19:59:11.102Z,-5.00
2022-12-14T20:04:13.626Z,-5.00
2022-12-14T20:09:17.937Z,-5.10
2022-12-14T20:14:20.299Z,-5.10
2022-12-14T20:19:23.076Z,-5.20
2022-12-14T20:24:25.532Z,-5.20
2022-12-14T20:29:28.149Z,-5.30
2022-12-14T20:34:30.846Z,-5.30
2022-12-14T20:39:33.267Z,-5.30
2022-12-14T20:44:35.584Z,-5.30
2022-12-14T20:49:38.901Z,-5.40
2022-12-14T20:54:41.373Z,-5.30
2022-12-14T20:59:43.770Z,-5.30
2022-12-14T21:04:46.437Z,-5.30
2022-12-14T21:09:48.828Z,-5.30
2022-12-14T21:14:53.991Z,-5.30
2022-12-14T21:19:57.985Z,-5.30
2022-12-14T21:25:03.677Z,-5.40
2022-12-14T21:30:11.438Z,-5.40
2022-12-14T21:35:17.577Z,-5.40
2022-12-14T21:40:40.375Z,-5.40
2022-12-14T21:45:44.067Z,-5.40
2022-12-14T21:50:48.330Z,-5.40
2022-12-14T21:55:51.593Z,-5.40
2022-12-14T22:00:54.045Z,-5.50
2022-12-14T22:05:56.560Z,-5.60
2022-12-14T22:11:03.007Z,-5.60
2022-12-14T22:16:08.394Z,-5.80
2022-12-14T22:21:10.887Z,-5.80
2022-12-14T22:26:13.289Z,-5.80
2022-12-14T22:31:16.146Z,-5.90
2022-12-14T22:36:18.799Z,-6.00
2022-12-14T22:41:21.270Z,-6.00
2022-12-14T22:46:25.579Z,-5.90
2022-12-14T22:51:29.274Z,-6.00
2022-12-14T22:56:37.911Z,-6.00
2022-12-14T23:01:40.945Z,-6.00
2022-12-14T23:06:43.466Z,-6.10
2022-12-14T23:12:06.600Z,-6.20
2022-12-14T23:17:31.081Z,-6.30
2022-12-14T23:22:52.380Z,-6.20
2022-12-14T23:28:13.365Z,-6.20
2022-12-14T23:33:34.462Z,-6.30
2022-12-14T23:38:55.249Z,-6.30
2022-12-14T23:44:16.034Z,-6.30
2022-12-14T23:49:37.070Z,-6.20
2022-12-14T23:54:57.860Z,-6.20
